createdAt,value
2023-04-25T00:00:41.501Z,98749.13
2023-04-25T00:03:10.153Z,98751.53
2023-04-25T00:05:38.224Z,98752.38
2023-04-25T00:08:06.168Z,98744.19
2023-04-25T00:10:33.762Z,98745.66
2023-04-25T00:13:03.440Z,98736.66
2023-04-25T00:15:33.636Z,98731.22
2023-04-25T00:18:01.290Z,98729.94
2023-04-25T00:20:28.782Z,98726.03
2023-04-25T00:22:56.114Z,98729.19
2023-04-25T00:25:24.465Z,98725.94
2023-04-25T00:27:51.815Z,98731.84
2023-04-25T00:30:19.253Z,98727.63
2023-04-25T00:32:47.097Z,98727.47
2023-04-25T00:35:14.926Z,98720.97
2023-04-25T00:37:42.321Z,98735.37
2023-04-25T00:40:10.410Z,98722.66
2023-04-25T00:42:38.370Z,98722.00
2023-04-25T00:45:07.412Z,98729.50
2023-04-25T00:47:35.503Z,98719.22
2023-04-25T00:50:02.870Z,98712.75
2023-04-25T00:52:30.252Z,98722.38
2023-04-25T00:54:57.900Z,98712.47
2023-04-25T00:57:25.786Z,98705.87
2023-04-25T00:59:53.519Z,98697.66
2023-04-25T01:02:21.794Z,98700.25
2023-04-25T01:04:49.332Z,98697.13
2023-04-25T01:07:17.191Z,98699.69
2023-04-25T01:09:44.869Z,98703.38
2023-04-25T01:12:12.229Z,98699.78
2023-04-25T01:14:39.574Z,98693.75
2023-04-25T01:17:08.722Z,98705.09
2023-04-25T01:19:36.654Z,98701.88
2023-04-25T01:22:04.756Z,98707.19
2023-04-25T01:24:33.208Z,98704.34
2023-04-25T01:27:01.494Z,98702.19
2023-04-25T01:29:28.916Z,98708.72
2023-04-25T01:31:56.605Z,98699.31
2023-04-25T01:34:24.007Z,98708.50
2023-04-25T01:36:51.644Z,98701.72
2023-04-25T01:39:19.478Z,98696.13
2023-04-25T01:41:47.508Z,98703.19
2023-04-25T01:44:15.049Z,98703.09
2023-04-25T01:46:42.708Z,98706.34
2023-04-25T01:49:10.084Z,98704.47
2023-04-25T01:51:37.681Z,98700.06
2023-04-25T01:54:05.367Z,98687.03
2023-04-25T01:56:33.328Z,98710.06
2023-04-25T01:59:00.977Z,98703.19
2023-04-25T02:01:29.862Z,98696.38
2023-04-25T02:03:58.676Z,98700.66
2023-04-25T02:06:26.497Z,98703.97
2023-04-25T02:08:54.275Z,98728.34
2023-04-25T02:11:21.918Z,98725.25
2023-04-25T02:13:49.982Z,98715.41
2023-04-25T02:16:18.037Z,98710.31
2023-04-25T02:18:45.975Z,98712.59
2023-04-25T02:21:13.391Z,98721.00
2023-04-25T02:23:40.772Z,98713.41
2023-04-25T02:26:08.392Z,98710.28
2023-04-25T02:28:36.854Z,98713.75
2023-04-25T02:31:05.878Z,98710.03
2023-04-25T02:33:33.247Z,98710.75
2023-04-25T02:36:00.624Z,98707.03
2023-04-25T02:38:28.261Z,98691.88
2023-04-25T02:40:57.687Z,98699.91
2023-04-25T02:43:27.074Z,98717.28
2023-04-25T02:45:54.724Z,98704.16
2023-04-25T02:48:22.095Z,98703.31
2023-04-25T02:50:49.750Z,98713.78
2023-04-25T02:53:17.345Z,98705.59
2023-04-25T02:55:45.001Z,98712.59
2023-04-25T02:58:12.358Z,98706.84
2023-04-25T03:00:41.018Z,98718.13
2023-04-25T03:03:08.469Z,98705.63
2023-04-25T03:05:35.898Z,98702.12
2023-04-25T03:08:03.923Z,98715.47
2023-04-25T03:10:31.608Z,98709.31
2023-04-25T03:12:59.737Z,98710.53
2023-04-25T03:15:27.618Z,98688.84
2023-04-25T03:17:55.042Z,98699.03
2023-04-25T03:20:22.485Z,98696.84
2023-04-25T03:22:50.285Z,98709.25
2023-04-25T03:25:19.170Z,98698.25
2023-04-25T03:27:46.954Z,98717.72
2023-04-25T03:30:14.785Z,98712.34
2023-04-25T03:32:42.592Z,98710.12
2023-04-25T03:35:10.012Z,98711.75
2023-04-25T03:37:37.649Z,98705.84
2023-04-25T03:40:05.511Z,98702.75
2023-04-25T03:42:34.528Z,98714.22
2023-04-25T03:45:02.685Z,98715.81
2023-04-25T03:47:30.834Z,98712.13
2023-04-25T03:49:58.737Z,98726.19
2023-04-25T03:52:26.554Z,98716.12
2023-04-25T03:54:54.552Z,98714.88
2023-04-25T03:57:22.219Z,98712.13
2023-04-25T03:59:49.887Z,98713.81
2023-04-25T04:02:18.793Z,98723.41
2023-04-25T04:04:46.905Z,98718.53
2023-04-25T04:07:14.800Z,98715.25
2023-04-25T04:09:42.422Z,98726.50
2023-04-25T04:12:11.541Z,98736.53
2023-04-25T04:14:39.231Z,98720.28
2023-04-25T04:17:07.043Z,98729.13
2023-04-25T04:19:34.879Z,98727.09
2023-04-25T04:22:03.024Z,98737.94
2023-04-25T04:24:30.398Z,98735.22
2023-04-25T04:26:58.411Z,98737.53
2023-04-25T04:29:26.440Z,98732.56
2023-04-25T04:31:54.675Z,98734.97
2023-04-25T04:34:22.398Z,98736.22
2023-04-25T04:36:49.791Z,98743.59
2023-04-25T04:39:17.167Z,98740.25
2023-04-25T04:41:45.026Z,98747.62
2023-04-25T04:44:13.394Z,98737.41
2023-04-25T04:46:42.072Z,98742.94
2023-04-25T04:49:10.831Z,98740.03
2023-04-25T04:51:38.852Z,98750.47
2023-04-25T04:54:06.301Z,98743.37
2023-04-25T04:56:34.293Z,98742.09
2023-04-25T04:59:02.863Z,98748.63
2023-04-25T05:01:31.272Z,98752.09
2023-04-25T05:04:02.496Z,98760.50
2023-04-25T05:06:32.465Z,98748.22
2023-04-25T05:09:02.564Z,98745.41
2023-04-25T05:11:31.213Z,98753.22
2023-04-25T05:13:58.636Z,98749.50
2023-04-25T05:16:26.979Z,98756.16
2023-04-25T05:18:54.429Z,98751.91
2023-04-25T05:21:22.449Z,98756.38
2023-04-25T05:23:50.742Z,98752.69
2023-04-25T05:26:18.636Z,98754.81
2023-04-25T05:28:46.140Z,98754.03
2023-04-25T05:31:13.934Z,98756.81
2023-04-25T05:33:41.798Z,98757.84
2023-04-25T05:36:09.510Z,98758.00
2023-04-25T05:38:37.369Z,98757.69
2023-04-25T05:41:06.007Z,98758.59
2023-04-25T05:43:33.610Z,98748.84
2023-04-25T05:46:01.337Z,98749.16
2023-04-25T05:48:28.728Z,98747.06
2023-04-25T05:50:56.500Z,98752.38
2023-04-25T05:53:24.476Z,98751.72
2023-04-25T05:55:52.083Z,98754.44
2023-04-25T05:58:19.788Z,98748.16
2023-04-25T06:00:47.529Z,98747.66
2023-04-25T06:03:20.426Z,98762.66
2023-04-25T06:05:48.856Z,98754.09
2023-04-25T06:08:16.480Z,98749.56
2023-04-25T06:10:44.140Z,98749.16
2023-04-25T06:13:11.556Z,98752.97
2023-04-25T06:15:39.208Z,98752.69
2023-04-25T06:18:06.749Z,98745.81
2023-04-25T06:20:35.128Z,98750.19
2023-04-25T06:23:02.816Z,98751.28
2023-04-25T06:25:30.806Z,98749.75
2023-04-25T06:27:58.169Z,98755.44
2023-04-25T06:30:26.782Z,98744.81
2023-04-25T06:32:54.870Z,98745.06
2023-04-25T06:35:22.548Z,98742.91
2023-04-25T06:37:50.409Z,98742.50
2023-04-25T06:40:22.335Z,98737.59
2023-04-25T06:42:50.081Z,98737.16
2023-04-25T06:45:21.262Z,98749.81
2023-04-25T06:47:48.696Z,98741.66
2023-04-25T06:50:16.431Z,98745.75
2023-04-25T06:52:43.970Z,98745.56
2023-04-25T06:55:11.539Z,98731.88
2023-04-25T06:57:40.256Z,98736.69
2023-04-25T07:00:10.664Z,98735.56
2023-04-25T07:02:38.343Z,98746.47
2023-04-25T07:05:06.711Z,98738.91
2023-04-25T07:07:34.334Z,98737.50
2023-04-25T07:10:01.805Z,98744.25
2023-04-25T07:12:29.469Z,98766.72
2023-04-25T07:14:56.842Z,98739.59
2023-04-25T07:17:24.404Z,98748.25
2023-04-25T07:19:53.030Z,98743.37
2023-04-25T07:22:20.467Z,98740.62
2023-04-25T07:24:49.730Z,98741.94
2023-04-25T07:27:19.278Z,98751.41
2023-04-25T07:29:47.401Z,98756.38
2023-04-25T07:32:15.222Z,98749.25
2023-04-25T07:34:44.006Z,98740.75
2023-04-25T07:37:11.406Z,98750.69
2023-04-25T07:39:39.571Z,98741.56
2023-04-25T07:42:09.129Z,98746.13
2023-04-25T07:44:39.769Z,98742.13
2023-04-25T07:47:08.300Z,98749.47
2023-04-25T07:49:38.692Z,98747.19
2023-04-25T07:52:08.876Z,98750.50
2023-04-25T07:54:36.837Z,98753.00
2023-04-25T07:57:04.633Z,98750.25
2023-04-25T07:59:32.170Z,98761.97
2023-04-25T08:02:00.874Z,98764.72
2023-04-25T08:04:28.815Z,98743.03
2023-04-25T08:06:56.568Z,98749.47
2023-04-25T08:09:24.078Z,98755.91
2023-04-25T08:11:52.489Z,98760.78
2023-04-25T08:14:20.804Z,98753.53
2023-04-25T08:16:49.244Z,98759.41
2023-04-25T08:19:17.021Z,98758.34
2023-04-25T08:21:45.762Z,98756.38
2023-04-25T08:24:14.236Z,98758.22
2023-04-25T08:26:42.298Z,98766.59
2023-04-25T08:29:10.665Z,98773.19
2023-04-25T08:31:38.949Z,98765.16
2023-04-25T08:34:07.092Z,98761.13
2023-04-25T08:36:39.211Z,98772.41
2023-04-25T08:39:14.466Z,98775.19
2023-04-25T08:41:43.286Z,98776.63
2023-04-25T08:44:11.871Z,98781.72
2023-04-25T08:46:42.051Z,98781.47
2023-04-25T08:49:10.584Z,98786.09
2023-04-25T08:51:45.059Z,98785.12
2023-04-25T08:54:28.033Z,98803.19
2023-04-25T08:57:02.985Z,98790.47
2023-04-25T08:59:31.052Z,98781.09
2023-04-25T09:01:59.071Z,98799.00
2023-04-25T09:04:27.071Z,98794.41
2023-04-25T09:06:55.967Z,98814.19
2023-04-25T09:09:24.834Z,98798.31
2023-04-25T09:11:52.486Z,98796.87
2023-04-25T09:14:26.718Z,98796.25
2023-04-25T09:16:57.134Z,98798.66
2023-04-25T09:19:40.489Z,98792.84
2023-04-25T09:22:09.948Z,98807.38
2023-04-25T09:24:45.173Z,98783.28
2023-04-25T09:27:20.269Z,98793.91
2023-04-25T09:29:48.644Z,98802.25
2023-04-25T09:32:21.597Z,98773.91
2023-04-25T09:34:51.714Z,98779.94
2023-04-25T09:37:30.067Z,98768.13
2023-04-25T09:40:06.923Z,98783.00
2023-04-25T09:42:35.743Z,98771.44
2023-04-25T09:45:03.541Z,98763.66
2023-04-25T09:47:33.023Z,98775.91
2023-04-25T09:50:01.205Z,98783.78
2023-04-25T09:52:28.694Z,98781.31
2023-04-25T09:54:56.515Z,98790.16
2023-04-25T09:57:24.967Z,98796.13
2023-04-25T09:59:53.737Z,98779.81
2023-04-25T10:02:26.208Z,98788.87
2023-04-25T10:04:56.286Z,98780.47
2023-04-25T10:07:31.108Z,98771.88
2023-04-25T10:10:01.232Z,98786.59
2023-04-25T10:12:28.866Z,98803.78
2023-04-25T10:14:56.301Z,98769.97
2023-04-25T10:17:23.941Z,98777.47
2023-04-25T10:19:52.237Z,98791.56
2023-04-25T10:22:42.633Z,98778.28
2023-04-25T10:25:10.284Z,98769.53
2023-04-25T10:27:38.121Z,98765.75
2023-04-25T10:30:12.158Z,98787.97
2023-04-25T10:32:39.816Z,98775.19
2023-04-25T10:35:13.475Z,98765.03
2023-04-25T10:38:00.115Z,98774.16
2023-04-25T10:40:27.711Z,98783.94
2023-04-25T10:42:56.273Z,98774.87
2023-04-25T10:45:23.700Z,98790.44
2023-04-25T10:47:51.072Z,98780.13
2023-04-25T10:50:18.809Z,98781.25
2023-04-25T10:52:46.160Z,98777.97
2023-04-25T10:55:13.515Z,98817.59
2023-04-25T10:57:41.980Z,98799.13
2023-04-25T11:00:19.598Z,98795.91
2023-04-25T11:02:53.211Z,98775.59
2023-04-25T11:05:30.211Z,98801.47
2023-04-25T11:10:32.787Z,98780.19
2023-04-25T11:13:01.065Z,98783.75
2023-04-25T11:15:28.726Z,98778.44
2023-04-25T11:17:56.218Z,98791.09
2023-04-25T11:20:26.832Z,98784.50
2023-04-25T11:22:54.219Z,98782.88
2023-04-25T11:25:22.007Z,98786.84
2023-04-25T11:27:57.112Z,98782.66
2023-04-25T11:30:25.218Z,98798.44
2023-04-25T11:32:53.207Z,98797.47
2023-04-25T11:35:21.871Z,98810.28
2023-04-25T11:37:49.338Z,98812.13
2023-04-25T11:40:17.067Z,98811.59
2023-04-25T11:42:45.420Z,98816.84
2023-04-25T11:45:13.037Z,98817.16
2023-04-25T11:47:40.697Z,98808.50
2023-04-25T11:50:08.879Z,98820.78
2023-04-25T11:52:45.377Z,98811.56
2023-04-25T11:55:17.433Z,98818.00
2023-04-25T11:57:53.717Z,98817.88
2023-04-25T12:00:21.769Z,98818.13
2023-04-25T12:02:53.043Z,98821.72
2023-04-25T12:05:32.241Z,98831.16
2023-04-25T12:08:11.832Z,98827.94
2023-04-25T12:10:44.038Z,98825.78
2023-04-25T12:13:24.730Z,98824.69
2023-04-25T12:15:52.359Z,98817.69
2023-04-25T12:18:21.869Z,98818.81
2023-04-25T12:20:49.227Z,98835.84
2023-04-25T12:23:16.578Z,98814.63
2023-04-25T12:25:45.655Z,98818.63
2023-04-25T12:28:20.725Z,98829.09
2023-04-25T12:31:05.214Z,98826.59
2023-04-25T12:33:37.071Z,98817.44
2023-04-25T12:36:09.613Z,98813.72
2023-04-25T12:38:41.101Z,98814.41
2023-04-25T12:41:09.374Z,98800.56
2023-04-25T12:43:37.301Z,98792.88
2023-04-25T12:46:04.795Z,98804.75
2023-04-25T12:48:32.547Z,98803.28
2023-04-25T12:50:59.893Z,98789.50
2023-04-25T12:53:27.361Z,98786.12
2023-04-25T12:58:24.650Z,98772.72
2023-04-25T13:00:52.122Z,98792.31
2023-04-25T13:03:19.929Z,98783.84
2023-04-25T13:05:47.407Z,98805.94
2023-04-25T13:08:14.820Z,98784.84
2023-04-25T13:10:42.976Z,98769.44
2023-04-25T13:13:10.473Z,98800.53
2023-04-25T13:15:37.828Z,98784.69
2023-04-25T13:18:06.933Z,98786.88
2023-04-25T13:20:34.532Z,98793.31
2023-04-25T13:23:02.974Z,98790.09
2023-04-25T13:25:30.849Z,98770.12
2023-04-25T13:27:58.246Z,98777.00
2023-04-25T13:30:25.674Z,98782.37
2023-04-25T13:32:53.745Z,98789.31
2023-04-25T13:35:21.237Z,98773.53
2023-04-25T13:37:48.598Z,98767.66
2023-04-25T13:40:16.218Z,98782.94
2023-04-25T13:42:45.578Z,98787.47
2023-04-25T13:45:12.964Z,98761.50
2023-04-25T13:47:40.665Z,98766.87
2023-04-25T13:50:08.904Z,98771.66
2023-04-25T13:52:36.454Z,98766.28
2023-04-25T13:55:04.749Z,98780.22
2023-04-25T13:57:32.592Z,98762.94
2023-04-25T14:00:00.445Z,98772.47
2023-04-25T14:02:28.226Z,98780.47
2023-04-25T14:04:56.113Z,98772.53
2023-04-25T14:07:23.547Z,98777.22
2023-04-25T14:09:50.908Z,98788.25
2023-04-25T14:12:18.741Z,98776.41
2023-04-25T14:14:46.334Z,98774.78
2023-04-25T14:17:17.534Z,98781.59
2023-04-25T14:19:46.656Z,98770.66
2023-04-25T14:22:14.024Z,98777.34
2023-04-25T14:24:41.369Z,98787.16
2023-04-25T14:27:09.229Z,98779.31
2023-04-25T14:29:36.632Z,98774.31
2023-04-25T14:32:04.753Z,98776.63
2023-04-25T14:34:32.353Z,98775.06
2023-04-25T14:36:59.769Z,98776.75
2023-04-25T14:39:27.165Z,98774.37
2023-04-25T14:41:54.772Z,98781.94
2023-04-25T14:44:22.186Z,98774.25
2023-04-25T14:46:52.553Z,98774.53
2023-04-25T14:49:20.344Z,98771.09
2023-04-25T14:51:48.754Z,98774.34
2023-04-25T14:54:17.886Z,98765.28
2023-04-25T14:56:45.533Z,98770.47
2023-04-25T14:59:12.887Z,98767.75
2023-04-25T15:01:40.233Z,98771.28
2023-04-25T15:04:08.132Z,98782.09
2023-04-25T15:06:35.614Z,98782.81
2023-04-25T15:09:02.969Z,98782.28
2023-04-25T15:11:30.849Z,98796.56
2023-04-25T15:13:58.188Z,98787.25
2023-04-25T15:16:25.550Z,98784.28
2023-04-25T15:18:53.200Z,98782.53
2023-04-25T15:21:20.847Z,98773.75
2023-04-25T15:23:48.371Z,98781.63
2023-04-25T15:26:16.555Z,98779.84
2023-04-25T15:28:43.931Z,98778.44
2023-04-25T15:31:11.357Z,98782.41
2023-04-25T15:33:38.998Z,98780.09
2023-04-25T15:36:06.793Z,98789.69
2023-04-25T15:38:34.171Z,98780.91
2023-04-25T15:41:02.609Z,98792.28
2023-04-25T15:43:31.019Z,98804.81
2023-04-25T15:45:58.506Z,98815.34
2023-04-25T15:48:26.420Z,98824.34
2023-04-25T15:50:53.765Z,98814.78
2023-04-25T15:53:21.286Z,98810.16
2023-04-25T15:55:48.934Z,98813.22
2023-04-25T15:58:16.467Z,98813.97
2023-04-25T16:00:43.917Z,98799.53
2023-04-25T16:03:11.663Z,98808.47
2023-04-25T16:05:39.452Z,98812.78
2023-04-25T16:08:06.841Z,98796.47
2023-04-25T16:10:34.494Z,98802.06
2023-04-25T16:13:01.846Z,98796.34
2023-04-25T16:15:29.194Z,98803.84
2023-04-25T16:17:56.942Z,98806.66
2023-04-25T16:20:24.286Z,98801.16
2023-04-25T16:22:51.712Z,98809.19
2023-04-25T16:25:21.721Z,98803.94
2023-04-25T16:27:49.093Z,98795.44
2023-04-25T16:30:16.662Z,98793.88
2023-04-25T16:32:45.564Z,98793.06
2023-04-25T16:35:13.185Z,98790.63
2023-04-25T16:37:40.624Z,98794.47
2023-04-25T16:40:09.882Z,98792.47
2023-04-25T16:42:37.376Z,98794.44
2023-04-25T16:45:05.203Z,98795.91
2023-04-25T16:47:33.115Z,98795.53
2023-04-25T16:50:01.156Z,98797.50
2023-04-25T16:52:28.535Z,98797.37
2023-04-25T16:54:56.455Z,98803.31
2023-04-25T16:57:23.818Z,98803.50
2023-04-25T16:59:52.069Z,98815.94
2023-04-25T17:02:19.803Z,98809.91
2023-04-25T17:04:47.590Z,98809.94
2023-04-25T17:07:15.942Z,98819.81
2023-04-25T17:09:43.719Z,98825.09
2023-04-25T17:12:11.069Z,98831.16
2023-04-25T17:14:39.064Z,98824.66
2023-04-25T17:17:07.047Z,98822.69
2023-04-25T17:19:34.540Z,98835.22
2023-04-25T17:22:01.895Z,98830.34
2023-04-25T17:24:29.479Z,98826.34
2023-04-25T17:26:57.189Z,98826.56
2023-04-25T17:29:24.597Z,98836.00
2023-04-25T17:31:53.528Z,98852.00
2023-04-25T17:34:21.488Z,98850.25
2023-04-25T17:36:48.881Z,98849.16
2023-04-25T17:39:17.504Z,98852.34
2023-04-25T17:41:45.066Z,98860.47
2023-04-25T17:44:12.449Z,98846.91
2023-04-25T17:46:40.166Z,98854.31
2023-04-25T17:49:07.710Z,98858.22
2023-04-25T17:51:35.074Z,98863.06
2023-04-25T17:54:02.977Z,98871.88
2023-04-25T17:56:31.217Z,98855.31
2023-04-25T17:58:59.112Z,98870.91
2023-04-25T18:01:26.976Z,98873.22
2023-04-25T18:03:54.833Z,98882.84
2023-04-25T18:06:22.380Z,98883.09
2023-04-25T18:08:50.057Z,98888.75
2023-04-25T18:11:17.834Z,98896.87
2023-04-25T18:13:45.192Z,98889.31
2023-04-25T18:16:12.569Z,98897.47
2023-04-25T18:18:43.177Z,98904.69
2023-04-25T18:21:10.628Z,98906.81
2023-04-25T18:23:38.604Z,98904.09
2023-04-25T18:26:06.480Z,98910.75
2023-04-25T18:28:34.419Z,98916.28
2023-04-25T18:31:01.848Z,98921.97
2023-04-25T18:33:29.569Z,98930.56
2023-04-25T18:35:59.796Z,98929.50
2023-04-25T18:41:10.508Z,98930.59
2023-04-25T18:43:45.627Z,98928.16
2023-04-25T18:46:13.337Z,98927.75
2023-04-25T18:48:40.752Z,98931.97
2023-04-25T18:51:08.252Z,98946.38
2023-04-25T18:53:35.901Z,98938.06
2023-04-25T18:56:03.276Z,98940.16
2023-04-25T18:58:30.684Z,98942.31
2023-04-25T19:00:58.323Z,98945.91
2023-04-25T19:03:26.419Z,98944.88
2023-04-25T19:05:53.967Z,98939.22
2023-04-25T19:08:21.704Z,98953.06
2023-04-25T19:10:49.780Z,98942.09
2023-04-25T19:13:17.158Z,98955.19
2023-04-25T19:15:44.772Z,98959.63
2023-04-25T19:18:12.186Z,98953.94
2023-04-25T19:20:39.739Z,98951.44
2023-04-25T19:23:07.404Z,98957.75
2023-04-25T19:25:34.863Z,98951.50
2023-04-25T19:28:02.441Z,98953.25
2023-04-25T19:30:30.060Z,98951.47
2023-04-25T19:32:58.081Z,98950.94
2023-04-25T19:35:30.619Z,98948.81
2023-04-25T19:37:58.626Z,98949.56
2023-04-25T19:40:26.136Z,98951.19
2023-04-25T19:42:53.526Z,98960.75
2023-04-25T19:45:21.571Z,98962.25
2023-04-25T19:47:49.194Z,98961.91
2023-04-25T19:50:16.700Z,98961.12
2023-04-25T19:52:44.463Z,98966.28
2023-04-25T19:55:11.871Z,98974.34
2023-04-25T19:57:39.278Z,98962.97
2023-04-25T20:00:10.604Z,98954.78
2023-04-25T20:02:39.567Z,98953.25
2023-04-25T20:05:08.137Z,98955.84
2023-04-25T20:07:35.655Z,98954.84
2023-04-25T20:10:04.073Z,98956.28
2023-04-25T20:12:31.651Z,98963.13
2023-04-25T20:14:58.984Z,98963.03
2023-04-25T20:17:26.486Z,98966.84
2023-04-25T20:19:54.121Z,98961.81
2023-04-25T20:22:21.491Z,98965.19
2023-04-25T20:24:48.849Z,98963.59
2023-04-25T20:27:16.460Z,98971.19
2023-04-25T20:29:44.653Z,98980.88
2023-04-25T20:32:12.298Z,98974.78
2023-04-25T20:34:40.015Z,98983.59
2023-04-25T20:37:08.891Z,98990.94
2023-04-25T20:39:36.375Z,98984.47
2023-04-25T20:42:04.073Z,98987.09
2023-04-25T20:44:32.013Z,98993.75
2023-04-25T20:46:59.502Z,98992.09
2023-04-25T20:49:27.306Z,98996.75
2023-04-25T20:51:54.686Z,98996.94
2023-04-25T20:54:22.161Z,98995.19
2023-04-25T20:56:51.024Z,99002.97
2023-04-25T20:59:18.450Z,99012.41
2023-04-25T21:01:46.143Z,99009.66
2023-04-25T21:04:14.001Z,99016.09
2023-04-25T21:06:41.821Z,99018.81
2023-04-25T21:09:09.745Z,99027.28
2023-04-25T21:11:38.433Z,99030.31
2023-04-25T21:14:05.794Z,99025.16
2023-04-25T21:16:35.336Z,99039.19
2023-04-25T21:19:03.044Z,99033.78
2023-04-25T21:21:32.215Z,99034.00
2023-04-25T21:23:59.603Z,99026.72
2023-04-25T21:26:27.523Z,99036.03
2023-04-25T21:28:54.995Z,99028.47
2023-04-25T21:31:22.549Z,99041.66
2023-04-25T21:33:50.311Z,99044.84
2023-04-25T21:36:17.645Z,99048.37
2023-04-25T21:38:45.014Z,99043.66
2023-04-25T21:41:12.690Z,99049.22
2023-04-25T21:43:40.052Z,99059.19
2023-04-25T21:46:22.059Z,99063.44
2023-04-25T21:48:51.635Z,99067.00
2023-04-25T21:51:19.537Z,99063.41
2023-04-25T21:53:46.908Z,99058.47
2023-04-25T21:56:14.537Z,99061.81
2023-04-25T21:58:42.130Z,99064.81
2023-04-25T22:01:09.981Z,99067.38
2023-04-25T22:03:37.737Z,99071.47
2023-04-25T22:06:05.265Z,99077.91
2023-04-25T22:08:32.615Z,99065.09
2023-04-25T22:11:02.699Z,99086.87
2023-04-25T22:13:30.599Z,99082.56
2023-04-25T22:15:59.218Z,99080.31
2023-04-25T22:18:26.919Z,99077.00
2023-04-25T22:20:54.594Z,99080.63
2023-04-25T22:23:22.681Z,99082.88
2023-04-25T22:25:50.302Z,99083.94
2023-04-25T22:28:17.689Z,99096.44
2023-04-25T22:30:45.071Z,99097.22
2023-04-25T22:33:12.982Z,99098.78
2023-04-25T22:35:40.368Z,99101.91
2023-04-25T22:38:07.705Z,99101.56
2023-04-25T22:40:35.488Z,99098.47
2023-04-25T22:43:03.062Z,99100.56
2023-04-25T22:45:30.496Z,99099.13
2023-04-25T22:47:58.602Z,99100.22
2023-04-25T22:50:27.053Z,99105.72
2023-04-25T22:52:55.071Z,99097.84
2023-04-25T22:55:22.847Z,99096.84
2023-04-25T22:57:50.222Z,99110.28
2023-04-25T23:00:20.282Z,99102.25
2023-04-25T23:02:48.576Z,99115.69
2023-04-25T23:05:16.155Z,99105.81
2023-04-25T23:07:44.984Z,99113.88
2023-04-25T23:10:14.077Z,99118.44
2023-04-25T23:12:41.528Z,99112.28
2023-04-25T23:15:10.016Z,99116.50
2023-04-25T23:17:38.209Z,99116.03
2023-04-25T23:20:07.564Z,99113.12
2023-04-25T23:22:35.205Z,99115.78
2023-04-25T23:25:02.841Z,99120.66
2023-04-25T23:27:31.514Z,99113.56
2023-04-25T23:29:58.904Z,99120.19
2023-04-25T23:32:26.852Z,99119.38
2023-04-25T23:34:54.236Z,99124.09
2023-04-25T23:37:21.646Z,99125.28
2023-04-25T23:39:50.640Z,99132.72
2023-04-25T23:42:18.439Z,99126.19
2023-04-25T23:44:45.890Z,99127.50
2023-04-25T23:47:14.327Z,99126.28
2023-04-25T23:49:41.885Z,99129.69
2023-04-25T23:52:09.789Z,99128.78
2023-04-25T23:54:37.675Z,99137.53
2023-04-25T23:57:05.119Z,99133.34
2023-04-25T23:59:32.538Z,99131.06
